Time;durP1;ratioP1;P1;durP2;ratioP2;P2;SDS_P1;SDS_P2;PMS_P1;PMS_P2;Temp;Humidity;BMP_temperature;BMP_pressure;BME280_temperature;BME280_humidity;BME280_pressure;Samples;Min_cycle;Max_cycle;Signal;HPM_P1;HPM_P2
2023/01/23 00:04:03;;;;;;;8.03;7.27;;;5.00;41.90;;;;;;10527880;28;20239;-71
2023/01/23 00:09:07;;;;;;;8.20;7.43;;;5.00;42.10;;;;;;10516181;28;20319;-71
2023/01/23 00:14:10;;;;;;;6.20;5.70;;;5.00;42.00;;;;;;10512086;28;20244;-72
2023/01/23 00:19:15;;;;;;;7.63;6.83;;;5.00;42.10;;;;;;10520566;28;20249;-71
2023/01/23 00:24:18;;;;;;;6.90;6.20;;;5.00;42.20;;;;;;10520787;28;20237;-71
2023/01/23 00:29:21;;;;;;;8.50;7.70;;;5.00;42.10;;;;;;10520725;28;22095;-71
2023/01/23 00:34:26;;;;;;;8.60;7.80;;;5.00;42.10;;;;;;10526165;28;20243;-71
2023/01/23 00:39:29;;;;;;;8.10;7.40;;;5.00;42.10;;;;;;10514135;28;20251;-72
2023/01/23 00:44:32;;;;;;;6.73;6.13;;;5.00;42.00;;;;;;10521359;28;20236;-71
2023/01/23 00:49:36;;;;;;;7.67;6.97;;;4.90;42.00;;;;;;10514769;28;20238;-71
2023/01/23 00:54:40;;;;;;;7.60;6.90;;;4.90;42.00;;;;;;10516405;28;20236;-71
2023/01/23 00:59:43;;;;;;;7.03;6.33;;;4.90;41.90;;;;;;10510219;28;20238;-69
2023/01/23 01:04:47;;;;;;;7.90;7.13;;;4.90;42.00;;;;;;10526757;28;20239;-71
2023/01/23 01:09:50;;;;;;;8.33;7.53;;;4.90;42.00;;;;;;10511356;28;20239;-71
2023/01/23 01:14:54;;;;;;;8.20;7.30;;;4.90;41.90;;;;;;10526566;28;20223;-72
2023/01/23 01:19:58;;;;;;;6.83;6.23;;;4.90;41.90;;;;;;10516387;28;20278;-71
2023/01/23 01:25:01;;;;;;;6.07;5.57;;;4.90;41.70;;;;;;10510074;28;20638;-72
2023/01/23 01:30:05;;;;;;;7.90;7.23;;;4.80;41.50;;;;;;10507474;28;20676;-69
2023/01/23 01:35:11;;;;;;;9.07;8.17;;;4.80;41.50;;;;;;10515532;28;20256;-69
2023/01/23 01:40:16;;;;;;;7.23;6.53;;;4.70;41.50;;;;;;10504744;28;20231;-69
2023/01/23 01:46:13;;;;;;;8.70;7.87;;;4.70;41.50;;;;;;10515820;28;20228;-70
2023/01/23 01:51:24;;;;;;;7.50;6.80;;;4.60;41.60;;;;;;10411478;28;20314;-69
2023/01/23 01:56:30;;;;;;;7.97;7.27;;;4.60;41.70;;;;;;10513038;28;20259;-69
2023/01/23 02:01:34;;;;;;;8.63;7.83;;;4.60;41.70;;;;;;10512248;28;20236;-71
2023/01/23 02:06:38;;;;;;;8.07;7.27;;;4.60;41.70;;;;;;10508807;28;20754;-71
2023/01/23 02:11:42;;;;;;;8.57;7.77;;;4.60;41.70;;;;;;10527817;28;20261;-71
2023/01/23 02:16:49;;;;;;;8.63;7.83;;;4.50;41.60;;;;;;10514546;28;20239;-71
2023/01/23 02:22:03;;;;;;;8.10;7.40;;;4.70;41.70;;;;;;10511109;28;20228;-71
2023/01/23 02:27:07;;;;;;;7.67;6.97;;;4.50;41.40;;;;;;10516477;28;20237;-71
2023/01/23 02:32:11;;;;;;;8.03;7.27;;;4.50;41.50;;;;;;10515689;28;20809;-71
2023/01/23 02:37:15;;;;;;;9.13;8.23;;;4.50;41.50;;;;;;10507292;28;20228;-71
2023/01/23 02:42:20;;;;;;;7.37;6.67;;;4.40;41.20;;;;;;10512723;28;20220;-72
2023/01/23 02:47:24;;;;;;;8.70;7.90;;;4.40;41.10;;;;;;10509283;28;20248;-71
2023/01/23 02:52:28;;;;;;;8.17;7.37;;;4.30;41.20;;;;;;10509106;28;20303;-72
2023/01/23 02:57:33;;;;;;;8.67;7.87;;;4.40;41.30;;;;;;10509849;28;20232;-72
2023/01/23 03:02:37;;;;;;;7.27;6.57;;;4.30;41.20;;;;;;10516093;28;20233;-71
2023/01/23 03:07:40;;;;;;;8.17;7.37;;;4.30;41.30;;;;;;10502589;28;20231;-72
2023/01/23 03:12:44;;;;;;;8.50;7.70;;;4.30;41.20;;;;;;10517912;28;20642;-71
2023/01/23 03:17:47;;;;;;;8.70;7.90;;;4.30;41.40;;;;;;10513562;28;20610;-71
2023/01/23 03:22:51;;;;;;;7.73;7.03;;;4.30;41.40;;;;;;10522912;28;20239;-71
2023/01/23 03:27:55;;;;;;;8.93;8.03;;;4.40;41.60;;;;;;10518522;28;20243;-71
2023/01/23 03:32:58;;;;;;;7.13;6.43;;;4.30;41.70;;;;;;10519125;28;20253;-71
2023/01/23 03:38:01;;;;;;;8.47;7.67;;;4.30;41.70;;;;;;10527622;28;20270;-72
2023/01/23 03:43:06;;;;;;;8.63;7.73;;;4.30;41.80;;;;;;10521610;28;20495;-69
2023/01/23 03:48:09;;;;;;;9.17;8.27;;;4.30;41.70;;;;;;10516765;28;20239;-69
2023/01/23 03:53:12;;;;;;;7.77;6.97;;;4.30;41.70;;;;;;10517871;28;20236;-71
2023/01/23 03:58:17;;;;;;;8.03;7.23;;;4.30;41.60;;;;;;10530360;28;20231;-69
2023/01/23 04:03:20;;;;;;;8.60;7.80;;;4.30;41.80;;;;;;10515518;28;20734;-69
2023/01/23 04:08:23;;;;;;;9.33;8.43;;;4.30;41.60;;;;;;10523372;28;20238;-69
2023/01/23 04:13:27;;;;;;;7.63;6.50;;;4.30;41.60;;;;;;10512414;28;20567;-69
2023/01/23 04:18:31;;;;;;;8.67;7.87;;;4.20;41.50;;;;;;10518002;28;20231;-69
2023/01/23 04:23:35;;;;;;;8.03;7.23;;;4.20;41.70;;;;;;10516460;28;20242;-69
2023/01/23 04:28:40;;;;;;;7.17;6.57;;;4.20;41.90;;;;;;10517360;28;20232;-69
2023/01/23 04:33:43;;;;;;;7.07;6.47;;;4.20;42.70;;;;;;10509453;28;20238;-69
2023/01/23 04:38:46;;;;;;;8.53;7.73;;;4.20;41.90;;;;;;10525206;28;20239;-70
2023/01/23 04:43:51;;;;;;;7.00;6.40;;;4.20;42.10;;;;;;10516821;28;20650;-70
2023/01/23 04:48:54;;;;;;;7.97;7.17;;;4.40;42.30;;;;;;10521854;28;20231;-70
2023/01/23 04:53:57;;;;;;;8.33;7.43;;;4.30;42.20;;;;;;10518437;28;20239;-71
2023/01/23 04:59:01;;;;;;;8.03;7.33;;;4.30;42.20;;;;;;10518689;28;20232;-72
2023/01/23 05:04:05;;;;;;;8.10;7.30;;;4.40;42.20;;;;;;10511400;28;20711;-71
2023/01/23 05:09:08;;;;;;;7.80;7.00;;;4.30;41.90;;;;;;10526925;28;20566;-71
2023/01/23 05:14:12;;;;;;;8.00;7.30;;;4.30;42.00;;;;;;10507532;28;20508;-71
2023/01/23 05:19:16;;;;;;;9.33;8.43;;;4.50;42.30;;;;;;10519628;28;20224;-71
2023/01/23 05:24:19;;;;;;;9.07;8.03;;;4.40;42.00;;;;;;10518204;28;20224;-71
2023/01/23 05:29:23;;;;;;;9.13;8.23;;;4.40;42.00;;;;;;10514093;28;20243;-71
2023/01/23 05:34:27;;;;;;;8.77;7.73;;;4.50;42.30;;;;;;10513945;28;20244;-71
2023/01/23 05:39:32;;;;;;;8.97;8.13;;;4.40;42.20;;;;;;10508201;28;20238;-71
2023/01/23 05:44:37;;;;;;;8.43;7.63;;;4.40;42.20;;;;;;10516481;28;20239;-73
2023/01/23 05:49:40;;;;;;;9.37;8.40;;;4.40;42.20;;;;;;10515725;28;20231;-71
2023/01/23 05:54:43;;;;;;;9.97;8.53;;;4.40;42.20;;;;;;10519700;28;20240;-70
2023/01/23 05:59:48;;;;;;;9.17;8.27;;;4.40;42.20;;;;;;10516093;28;20223;-72
2023/01/23 06:04:51;;;;;;;9.77;8.77;;;4.50;42.30;;;;;;10535086;28;20247;-73
2023/01/23 06:09:57;;;;;;;10.00;8.93;;;4.50;42.30;;;;;;10525750;28;20244;-71
2023/01/23 06:15:02;;;;;;;9.77;8.77;;;4.40;42.30;;;;;;10522935;28;20243;-70
2023/01/23 06:20:06;;;;;;;8.87;7.97;;;4.60;42.40;;;;;;10521469;28;20710;-70
2023/01/23 06:25:10;;;;;;;11.00;9.87;;;4.50;43.10;;;;;;10518487;28;20234;-69
2023/01/23 06:30:15;;;;;;;16.63;14.83;;;4.60;43.20;;;;;;10508200;28;20242;-69
2023/01/23 06:35:18;;;;;;;13.47;12.07;;;4.60;42.50;;;;;;10517164;28;20707;-69
2023/01/23 06:40:22;;;;;;;14.10;12.60;;;4.60;42.40;;;;;;10508445;28;21137;-70
2023/01/23 06:45:27;;;;;;;14.50;12.73;;;4.60;42.20;;;;;;10528125;28;20248;-70
2023/01/23 06:50:30;;;;;;;13.73;12.07;;;4.60;42.20;;;;;;10527643;28;20220;-71
2023/01/23 06:55:33;;;;;;;12.10;10.80;;;4.70;42.20;;;;;;10520852;28;20248;-74
2023/01/23 07:00:38;;;;;;;13.93;11.80;;;4.50;42.10;;;;;;10523127;28;20230;-73
2023/01/23 07:05:42;;;;;;;15.77;12.33;;;4.50;42.30;;;;;;10521447;28;20236;-71
2023/01/23 07:10:45;;;;;;;15.43;12.13;;;4.40;42.20;;;;;;10519083;28;20234;-70
2023/01/23 07:15:49;;;;;;;16.07;14.37;;;4.40;42.20;;;;;;10516975;28;20274;-71
2023/01/23 07:20:53;;;;;;;15.70;13.27;;;4.40;42.20;;;;;;10508991;28;20274;-71
2023/01/23 07:25:59;;;;;;;13.97;11.93;;;4.40;42.20;;;;;;10517513;28;20632;-71
2023/01/23 07:31:04;;;;;;;15.10;12.43;;;4.30;42.20;;;;;;10518382;28;20223;-71
2023/01/23 07:36:09;;;;;;;16.80;12.77;;;4.30;42.20;;;;;;10517557;28;20238;-71
2023/01/23 07:41:12;;;;;;;15.80;12.50;;;4.30;42.20;;;;;;10517022;28;22587;-71
2023/01/23 07:46:17;;;;;;;14.20;12.27;;;4.30;42.20;;;;;;10510118;28;20227;-70
2023/01/23 07:51:20;;;;;;;16.30;12.87;;;4.30;42.30;;;;;;10518511;28;20223;-72
2023/01/23 07:56:23;;;;;;;16.03;12.73;;;4.30;42.50;;;;;;10518610;28;20233;-70
2023/01/23 08:01:28;;;;;;;16.77;13.10;;;4.30;42.40;;;;;;10532934;28;20803;-70
2023/01/23 08:06:32;;;;;;;15.23;12.57;;;4.30;42.60;;;;;;10518941;28;20719;-70
2023/01/23 08:11:36;;;;;;;15.83;12.27;;;4.30;42.50;;;;;;10521644;28;20228;-76
2023/01/23 08:16:40;;;;;;;14.13;11.70;;;4.30;42.70;;;;;;10527910;28;20239;-73
2023/01/23 08:21:44;;;;;;;16.40;13.47;;;4.20;42.80;;;;;;10521594;28;20282;-73
2023/01/23 08:26:47;;;;;;;17.00;13.17;;;4.20;42.70;;;;;;10526479;28;20649;-74
2023/01/23 08:31:53;;;;;;;16.43;13.00;;;4.20;42.70;;;;;;10528175;28;20224;-74
2023/01/23 08:36:57;;;;;;;18.47;11.73;;;4.20;42.90;;;;;;10525434;28;20224;-73
2023/01/23 08:42:00;;;;;;;15.30;13.00;;;4.40;43.00;;;;;;10537703;28;20220;-73
2023/01/23 08:47:04;;;;;;;16.40;13.63;;;4.20;42.90;;;;;;10546484;28;20239;-73
2023/01/23 08:52:07;;;;;;;16.27;13.10;;;4.30;43.20;;;;;;10544656;28;20249;-70
2023/01/23 08:57:10;;;;;;;14.37;12.47;;;4.30;43.00;;;;;;10546990;28;20230;-71
2023/01/23 09:02:15;;;;;;;15.83;12.77;;;4.40;43.10;;;;;;10535851;28;20251;-72
2023/01/23 09:07:19;;;;;;;16.97;13.33;;;4.30;43.10;;;;;;10528685;28;20227;-72
2023/01/23 09:12:22;;;;;;;16.07;13.27;;;4.30;43.10;;;;;;10518525;28;20227;-72
2023/01/23 09:17:27;;;;;;;16.23;13.40;;;4.30;43.10;;;;;;10538881;28;20238;-72
2023/01/23 09:22:30;;;;;;;16.70;13.60;;;4.30;43.30;;;;;;10535080;28;20231;-73
2023/01/23 09:27:33;;;;;;;16.47;13.83;;;4.40;43.30;;;;;;10528603;28;20243;-72
2023/01/23 09:32:38;;;;;;;17.70;14.03;;;4.40;43.30;;;;;;10545646;28;20239;-72
2023/01/23 09:43:16;;;;;;;16.77;14.03;;;4.40;43.30;;;;;;10453960;28;20641;-72
2023/01/23 09:48:27;;;;;;;17.73;14.37;;;4.50;43.70;;;;;;10508737;28;20226;-72
2023/01/23 09:53:37;;;;;;;16.13;13.70;;;4.50;43.80;;;;;;10514047;28;20239;-72
2023/01/23 09:58:47;;;;;;;18.40;13.60;;;4.50;43.80;;;;;;10509705;28;20235;-70
2023/01/23 10:03:54;;;;;;;16.80;13.77;;;4.60;43.80;;;;;;10504983;28;20236;-71
2023/01/23 10:09:22;;;;;;;17.40;14.50;;;4.60;43.70;;;;;;10512713;28;20230;-70
2023/01/23 10:14:47;;;;;;;16.33;13.53;;;4.60;44.00;;;;;;10509698;28;20344;-70
2023/01/23 10:20:13;;;;;;;16.83;13.80;;;4.70;44.30;;;;;;10511258;28;20947;-71
2023/01/23 10:25:20;;;;;;;17.13;13.73;;;4.80;44.00;;;;;;10499496;28;20223;-70
2023/01/23 10:30:28;;;;;;;17.90;13.57;;;4.80;44.00;;;;;;10510281;28;20235;-70
2023/01/23 10:35:40;;;;;;;17.23;14.60;;;4.90;44.00;;;;;;10509361;28;20289;-70
2023/01/23 10:46:11;;;;;;;16.17;13.37;;;5.10;43.60;;;;;;10527966;28;20943;-72
2023/01/23 10:51:34;;;;;;;19.60;13.97;;;5.10;43.70;;;;;;10545619;28;20285;-72
2023/01/23 10:56:58;;;;;;;17.83;13.87;;;5.10;44.00;;;;;;10534549;28;20246;-72
2023/01/23 11:02:17;;;;;;;16.07;13.47;;;5.20;44.00;;;;;;10524714;28;20242;-72
2023/01/23 11:07:26;;;;;;;15.00;13.03;;;5.20;43.90;;;;;;10530222;28;20683;-72
2023/01/23 11:12:30;;;;;;;16.57;12.63;;;5.30;44.00;;;;;;10528904;28;20238;-72
2023/01/23 11:17:34;;;;;;;17.07;13.47;;;5.40;43.80;;;;;;10525818;28;20647;-72
2023/01/23 11:22:41;;;;;;;16.57;13.23;;;5.40;43.70;;;;;;10527559;28;20235;-70
2023/01/23 11:27:57;;;;;;;16.17;12.80;;;5.40;43.80;;;;;;10525055;28;20231;-71
2023/01/23 11:33:12;;;;;;;16.33;14.10;;;5.50;44.10;;;;;;10523038;28;20261;-71
2023/01/23 11:38:20;;;;;;;14.57;13.00;;;5.50;44.00;;;;;;10524052;28;20292;-72
2023/01/23 11:43:33;;;;;;;17.00;13.43;;;5.60;44.40;;;;;;10527760;28;20289;-70
2023/01/23 11:49:09;;;;;;;15.13;12.50;;;5.70;44.10;;;;;;10519693;28;20228;-71
2023/01/23 11:54:34;;;;;;;16.40;13.00;;;5.70;44.40;;;;;;10514969;28;20232;-71
2023/01/23 11:59:49;;;;;;;17.63;15.77;;;5.80;44.30;;;;;;10517751;28;20726;-71
2023/01/23 12:05:15;;;;;;;17.33;14.00;;;5.80;44.30;;;;;;10517410;28;20698;-69
2023/01/23 12:10:28;;;;;;;14.47;12.97;;;5.80;44.20;;;;;;10518498;28;20782;-71
2023/01/23 12:15:39;;;;;;;14.83;12.90;;;5.80;44.10;;;;;;10512770;28;20236;-71
2023/01/23 12:20:53;;;;;;;14.97;12.10;;;5.80;44.20;;;;;;10524704;28;20232;-72
2023/01/23 12:26:06;;;;;;;13.37;11.97;;;5.90;44.40;;;;;;10516176;28;20264;-72
2023/01/23 12:31:26;;;;;;;13.50;11.33;;;6.00;44.40;;;;;;10513061;28;20235;-72
2023/01/23 12:36:46;;;;;;;11.67;10.47;;;6.00;44.30;;;;;;10515832;28;20296;-72
2023/01/23 12:42:17;;;;;;;12.37;10.50;;;6.10;44.20;;;;;;10517152;28;20704;-71
2023/01/23 12:47:25;;;;;;;12.33;11.03;;;6.10;43.80;;;;;;10507344;28;20603;-71
2023/01/23 12:52:35;;;;;;;12.27;10.03;;;6.10;43.60;;;;;;10517828;28;20315;-72
2023/01/23 12:57:43;;;;;;;11.23;10.07;;;6.10;43.90;;;;;;10513516;28;20243;-71
2023/01/23 13:03:19;;;;;;;11.40;10.30;;;6.20;43.70;;;;;;10510351;28;20594;-72
2023/01/23 13:08:31;;;;;;;10.60;9.50;;;6.20;43.70;;;;;;10511964;28;20767;-73
2023/01/23 13:13:50;;;;;;;12.10;10.80;;;6.20;43.70;;;;;;10533187;28;20238;-73
2023/01/23 13:30:39;;;;;;;12.87;10.73;;;6.20;44.00;;;;;;10532517;28;20239;-72
2023/01/23 13:35:54;;;;;;;11.20;10.00;;;6.20;44.00;;;;;;10519899;28;20280;-72
2023/01/23 13:41:29;;;;;;;11.90;10.70;;;6.30;43.80;;;;;;10526113;28;20219;-72
2023/01/23 13:46:56;;;;;;;11.53;10.33;;;6.30;43.90;;;;;;10521725;28;20235;-72
2023/01/23 13:57:47;;;;;;;10.60;9.50;;;6.40;43.90;;;;;;10318008;28;20308;-72
2023/01/23 14:08:57;;;;;;;10.57;9.50;;;6.40;43.90;;;;;;10036852;29;20254;-73
2023/01/23 14:19:54;;;;;;;10.50;9.40;;;6.50;43.90;;;;;;9971557;29;20308;-76
2023/01/23 14:25:16;;;;;;;12.13;10.83;;;6.50;44.00;;;;;;10025160;29;20262;-76
2023/01/23 14:30:25;;;;;;;11.33;9.90;;;6.50;44.00;;;;;;10120970;29;20237;-77
2023/01/23 14:35:31;;;;;;;11.43;10.00;;;6.50;43.90;;;;;;10169606;28;20239;-77
2023/01/23 14:40:35;;;;;;;10.47;9.47;;;6.50;43.70;;;;;;10264695;28;20231;-78
2023/01/23 14:45:59;;;;;;;11.10;10.03;;;6.50;43.70;;;;;;10269503;28;20265;-77
2023/01/23 14:51:08;;;;;;;9.53;8.63;;;6.50;43.70;;;;;;10488954;28;20231;-77
2023/01/23 14:56:12;;;;;;;11.70;10.50;;;6.50;43.70;;;;;;10517903;28;20240;-77
2023/01/23 15:01:17;;;;;;;10.60;9.50;;;6.60;43.70;;;;;;10510396;28;20223;-74
2023/01/23 15:06:23;;;;;;;11.07;9.97;;;6.60;43.60;;;;;;10521414;28;20235;-74
2023/01/23 15:11:28;;;;;;;10.37;9.37;;;6.60;43.60;;;;;;10526142;28;20235;-74
2023/01/23 15:16:36;;;;;;;10.20;9.20;;;6.60;43.60;;;;;;10535251;28;20243;-74
2023/01/23 15:21:42;;;;;;;10.33;9.27;;;6.60;43.50;;;;;;10539543;28;20242;-75
2023/01/23 15:26:55;;;;;;;10.50;9.50;;;6.60;43.40;;;;;;10526479;28;20247;-75
2023/01/23 15:31:59;;;;;;;10.87;9.77;;;6.60;43.40;;;;;;10554797;28;20234;-73
2023/01/23 15:37:17;;;;;;;10.80;9.73;;;6.60;43.70;;;;;;10519993;28;20232;-74
2023/01/23 15:42:29;;;;;;;10.13;9.13;;;6.70;43.80;;;;;;10529377;28;20223;-76
2023/01/23 15:47:35;;;;;;;10.23;9.27;;;6.70;43.70;;;;;;10528922;28;20231;-76
2023/01/23 15:52:48;;;;;;;9.70;8.80;;;6.70;43.50;;;;;;10533838;28;20706;-75
2023/01/23 15:57:56;;;;;;;9.33;8.43;;;6.80;43.70;;;;;;10529477;28;20241;-75
2023/01/23 16:02:59;;;;;;;10.70;9.70;;;6.80;43.70;;;;;;10536466;28;20284;-75
2023/01/23 16:08:06;;;;;;;10.43;9.43;;;6.80;43.60;;;;;;10530174;28;20240;-75
2023/01/23 16:13:12;;;;;;;11.20;10.10;;;6.80;43.50;;;;;;10531077;28;20236;-74
2023/01/23 16:18:15;;;;;;;10.30;9.30;;;6.80;43.20;;;;;;10526801;28;20231;-73
2023/01/23 16:23:23;;;;;;;12.23;10.93;;;6.80;43.30;;;;;;10533846;28;20707;-75
2023/01/23 16:28:26;;;;;;;11.13;10.03;;;6.80;43.40;;;;;;10531664;28;20314;-75
2023/01/23 16:33:30;;;;;;;11.20;10.10;;;6.80;43.40;;;;;;10523262;28;20246;-75
2023/01/23 16:38:34;;;;;;;11.73;10.53;;;6.80;43.30;;;;;;10532276;28;20316;-75
2023/01/23 16:43:37;;;;;;;13.90;10.07;;;6.80;43.20;;;;;;10535839;28;20323;-77
2023/01/23 16:48:40;;;;;;;13.17;11.87;;;6.70;44.10;;;;;;10536417;28;20608;-76
2023/01/23 16:53:51;;;;;;;12.67;11.37;;;6.80;44.00;;;;;;10516654;28;20285;-74
2023/01/23 16:58:54;;;;;;;12.30;11.03;;;6.80;43.90;;;;;;10506904;28;20747;-73
2023/01/23 17:04:02;;;;;;;12.80;11.50;;;6.80;43.50;;;;;;10513293;28;20243;-77
2023/01/23 17:09:07;;;;;;;14.30;12.80;;;6.80;43.50;;;;;;10519774;28;20224;-76
2023/01/23 17:14:17;;;;;;;14.27;12.60;;;6.80;43.30;;;;;;10520259;28;20227;-75
2023/01/23 17:19:29;;;;;;;14.37;12.63;;;6.80;43.10;;;;;;10505326;28;20226;-75
2023/01/23 17:24:33;;;;;;;15.17;13.20;;;6.70;43.10;;;;;;10503160;28;20235;-75
2023/01/23 17:29:37;;;;;;;14.63;13.03;;;6.70;43.00;;;;;;10507401;28;21194;-73
2023/01/23 17:34:42;;;;;;;15.77;14.00;;;6.70;43.10;;;;;;10506309;28;20248;-73
2023/01/23 17:39:53;;;;;;;13.53;12.13;;;6.60;43.00;;;;;;10509044;28;20748;-74
2023/01/23 17:44:56;;;;;;;14.47;12.90;;;6.60;43.20;;;;;;10513399;28;20958;-74
2023/01/23 17:50:00;;;;;;;15.37;13.67;;;6.60;43.20;;;;;;10509423;28;20231;-75
2023/01/23 17:55:05;;;;;;;14.17;12.70;;;6.50;43.20;;;;;;10508532;28;20231;-75
2023/01/23 18:00:10;;;;;;;14.93;13.43;;;6.60;43.30;;;;;;10502335;28;20251;-75
2023/01/23 18:05:14;;;;;;;14.17;12.67;;;6.60;43.30;;;;;;10509075;28;20228;-75
2023/01/23 18:10:20;;;;;;;13.90;12.50;;;6.60;43.20;;;;;;10512722;28;20736;-75
2023/01/23 18:15:31;;;;;;;14.93;13.33;;;6.60;43.20;;;;;;10509712;28;20309;-75
2023/01/23 18:20:35;;;;;;;15.30;13.77;;;6.60;43.30;;;;;;10521451;28;20872;-75
2023/01/23 18:25:44;;;;;;;14.27;12.77;;;6.60;43.20;;;;;;10513307;28;20249;-74
2023/01/23 18:30:55;;;;;;;14.30;12.80;;;6.60;43.10;;;;;;10513055;28;20227;-77
2023/01/23 18:36:27;;;;;;;15.97;13.77;;;6.60;43.10;;;;;;10531642;28;20273;-77
2023/01/23 18:41:32;;;;;;;15.67;13.53;;;6.50;43.00;;;;;;10523760;28;20231;-77
2023/01/23 18:46:37;;;;;;;15.40;13.13;;;6.50;43.00;;;;;;10526994;28;20243;-77
2023/01/23 18:51:53;;;;;;;15.43;13.47;;;6.50;42.90;;;;;;10525806;28;20235;-78
2023/01/23 18:57:11;;;;;;;14.30;12.80;;;6.40;43.00;;;;;;10527075;28;20235;-77
2023/01/23 19:02:25;;;;;;;14.63;13.13;;;6.30;43.10;;;;;;10518263;28;20276;-77
2023/01/23 19:07:29;;;;;;;14.97;12.43;;;6.30;43.20;;;;;;10525111;28;20320;-76
2023/01/23 19:12:41;;;;;;;14.33;12.60;;;6.20;43.10;;;;;;10529127;28;20259;-78
2023/01/23 19:17:49;;;;;;;14.03;12.63;;;6.20;43.50;;;;;;10516085;28;20281;-77
2023/01/23 19:23:01;;;;;;;15.03;13.37;;;6.20;43.50;;;;;;10527806;28;20227;-77
2023/01/23 19:28:10;;;;;;;14.07;12.53;;;6.20;43.40;;;;;;10516131;28;20227;-76
2023/01/23 19:33:16;;;;;;;15.27;13.67;;;6.20;43.40;;;;;;10525632;28;20292;-76
2023/01/23 19:38:19;;;;;;;14.50;11.70;;;6.20;43.40;;;;;;10524683;28;20266;-76
2023/01/23 19:43:26;;;;;;;14.47;12.93;;;6.20;43.40;;;;;;10524909;28;20326;-74
2023/01/23 19:48:30;;;;;;;14.73;13.13;;;6.20;43.50;;;;;;10524482;28;20239;-73
2023/01/23 19:53:33;;;;;;;15.00;13.37;;;6.20;43.40;;;;;;10535155;28;20232;-73
2023/01/23 19:58:38;;;;;;;14.47;12.97;;;6.20;43.40;;;;;;10519782;28;20230;-73
2023/01/23 20:03:43;;;;;;;15.07;13.47;;;6.20;43.40;;;;;;10530821;28;20271;-73
2023/01/23 20:08:48;;;;;;;14.73;13.23;;;6.20;43.40;;;;;;10533325;28;20808;-73
2023/01/23 20:13:53;;;;;;;14.80;13.20;;;6.30;43.40;;;;;;10527209;28;20239;-73
2023/01/23 20:18:56;;;;;;;15.23;13.60;;;6.30;43.50;;;;;;10526003;28;20947;-73
2023/01/23 20:23:59;;;;;;;15.03;13.50;;;6.20;43.30;;;;;;10525626;28;20747;-73
2023/01/23 20:29:04;;;;;;;13.60;12.20;;;6.30;43.40;;;;;;10522013;28;20232;-73
2023/01/23 20:34:07;;;;;;;14.63;13.10;;;6.30;43.40;;;;;;10519895;28;20235;-74
2023/01/23 20:39:12;;;;;;;14.00;12.50;;;6.30;43.50;;;;;;10522840;28;20250;-73
2023/01/23 20:44:16;;;;;;;14.27;12.77;;;6.20;43.40;;;;;;10527327;28;20266;-73
2023/01/23 20:49:21;;;;;;;14.03;12.20;;;6.20;43.70;;;;;;10522073;28;20274;-73
2023/01/23 20:54:25;;;;;;;14.83;13.33;;;6.20;43.50;;;;;;10530303;28;20243;-73
2023/01/23 20:59:29;;;;;;;15.03;12.70;;;6.30;43.50;;;;;;10529059;28;20274;-73
2023/01/23 21:04:35;;;;;;;13.43;12.03;;;6.20;43.50;;;;;;10517459;28;20227;-73
2023/01/23 21:09:38;;;;;;;15.00;13.40;;;6.30;43.70;;;;;;10518143;28;20240;-73
2023/01/23 21:14:42;;;;;;;14.30;12.80;;;6.30;43.60;;;;;;10532878;28;20224;-74
2023/01/23 21:19:46;;;;;;;13.93;12.37;;;6.30;43.70;;;;;;10520084;28;20231;-74
2023/01/23 21:24:49;;;;;;;13.70;12.30;;;6.30;43.50;;;;;;10529155;28;20250;-73
2023/01/23 21:29:54;;;;;;;14.87;12.80;;;6.30;43.60;;;;;;10526813;28;20242;-73
2023/01/23 21:34:57;;;;;;;14.87;13.27;;;6.20;43.60;;;;;;10521433;28;20240;-74
2023/01/23 21:40:00;;;;;;;15.23;13.03;;;6.30;43.70;;;;;;10510250;28;20273;-73
2023/01/23 21:45:06;;;;;;;14.30;12.80;;;6.30;43.70;;;;;;10510734;28;20242;-74
2023/01/23 21:50:10;;;;;;;13.10;11.80;;;6.30;43.80;;;;;;10513821;28;20704;-73
2023/01/23 21:55:14;;;;;;;13.93;12.50;;;6.30;43.70;;;;;;10518150;28;20238;-74
2023/01/23 22:05:39;;;;;;;13.27;11.90;;;6.30;43.70;;;;;;10521248;28;20228;-74
2023/01/23 22:10:42;;;;;;;13.97;12.50;;;6.30;43.70;;;;;;10517667;28;20243;-74
2023/01/23 22:15:47;;;;;;;13.60;12.20;;;6.30;43.60;;;;;;10517603;28;20228;-74
2023/01/23 22:20:53;;;;;;;13.30;12.00;;;6.30;44.10;;;;;;10514897;28;20228;-74
2023/01/23 22:25:59;;;;;;;14.17;12.40;;;6.20;43.70;;;;;;10517297;28;20238;-74
2023/01/23 22:31:09;;;;;;;13.30;11.57;;;6.30;43.80;;;;;;10504632;28;20231;-74
2023/01/23 22:36:14;;;;;;;14.13;12.63;;;6.20;43.70;;;;;;10515276;28;20606;-74
2023/01/23 22:41:17;;;;;;;13.80;12.33;;;6.30;43.80;;;;;;10511693;28;20255;-74
2023/01/23 22:46:23;;;;;;;17.40;15.60;;;6.20;43.70;;;;;;10510746;28;20218;-74
2023/01/23 22:51:28;;;;;;;14.07;12.57;;;6.30;43.80;;;;;;10510853;28;20238;-73
2023/01/23 22:56:32;;;;;;;16.10;13.33;;;6.30;43.80;;;;;;10507220;28;20731;-73
2023/01/23 23:01:36;;;;;;;14.00;12.50;;;6.20;43.70;;;;;;10506082;28;20220;-73
2023/01/23 23:06:39;;;;;;;15.33;12.87;;;6.30;43.80;;;;;;10526699;28;20704;-73
2023/01/23 23:11:43;;;;;;;14.77;13.07;;;6.30;43.80;;;;;;10511255;28;20228;-74
2023/01/23 23:16:48;;;;;;;15.63;13.77;;;6.30;43.80;;;;;;10509696;28;20283;-73
2023/01/23 23:21:51;;;;;;;15.57;13.90;;;6.30;43.80;;;;;;10511796;28;20242;-73
2023/01/23 23:26:54;;;;;;;14.33;12.83;;;6.20;43.70;;;;;;10518334;28;20318;-73
2023/01/23 23:31:59;;;;;;;14.23;12.73;;;6.30;43.80;;;;;;10521654;28;20598;-73
2023/01/23 23:37:02;;;;;;;15.00;13.43;;;6.30;43.80;;;;;;10524778;28;20265;-73
2023/01/23 23:42:05;;;;;;;14.70;12.77;;;6.30;43.80;;;;;;10519219;28;20220;-73
2023/01/23 23:47:10;;;;;;;14.10;12.60;;;6.30;43.80;;;;;;10525303;28;20243;-73
2023/01/23 23:52:13;;;;;;;13.97;12.40;;;6.30;43.80;;;;;;10531600;28;20228;-73
2023/01/23 23:57:16;;;;;;;14.80;13.30;;;6.30;43.80;;;;;;10519727;28;20215;-73
